createdAt,value
2023-04-15T00:00:42.230Z,5.68
2023-04-15T00:03:10.629Z,4.45
2023-04-15T00:05:38.836Z,7.50
2023-04-15T00:08:07.739Z,8.07
2023-04-15T00:10:35.829Z,7.47
2023-04-15T00:13:04.438Z,6.55
2023-04-15T00:15:33.797Z,5.88
2023-04-15T00:18:02.452Z,6.28
2023-04-15T00:20:30.483Z,5.63
2023-04-15T00:22:59.523Z,6.78
2023-04-15T00:25:27.619Z,4.53
2023-04-15T00:27:55.739Z,3.90
2023-04-15T00:30:25.767Z,8.68
2023-04-15T00:32:55.556Z,7.18
2023-04-15T00:35:25.542Z,5.82
2023-04-15T00:37:53.939Z,5.50
2023-04-15T00:40:24.744Z,6.90
2023-04-15T00:42:53.440Z,6.82
2023-04-15T00:45:21.654Z,8.00
2023-04-15T00:47:49.879Z,4.65
2023-04-15T00:50:19.359Z,5.45
2023-04-15T00:52:47.520Z,7.38
2023-04-15T00:55:17.029Z,7.15
2023-04-15T00:57:46.090Z,7.97
2023-04-15T01:00:14.712Z,4.95
2023-04-15T01:02:42.954Z,5.68
2023-04-15T01:05:11.261Z,5.70
2023-04-15T01:07:40.714Z,6.70
2023-04-15T01:10:09.773Z,7.55
2023-04-15T01:12:39.618Z,8.23
2023-04-15T01:15:11.018Z,6.47
2023-04-15T01:17:39.802Z,8.02
2023-04-15T01:20:12.243Z,8.20
2023-04-15T01:22:42.440Z,8.80
2023-04-15T01:25:14.015Z,7.60
2023-04-15T01:27:43.484Z,4.70
2023-04-15T01:30:12.237Z,6.97
2023-04-15T01:32:40.314Z,5.95
2023-04-15T01:35:08.888Z,7.82
2023-04-15T01:37:38.009Z,8.48
2023-04-15T01:40:07.060Z,8.13
2023-04-15T01:42:37.440Z,7.32
2023-04-15T01:45:08.366Z,7.90
2023-04-15T01:47:39.363Z,8.40
2023-04-15T01:50:08.590Z,7.70
2023-04-15T01:52:36.723Z,6.13
2023-04-15T01:55:06.260Z,8.20
2023-04-15T01:57:34.481Z,8.15
2023-04-15T02:00:02.584Z,9.57
2023-04-15T02:02:43.046Z,9.73
2023-04-15T02:05:11.346Z,8.18
2023-04-15T02:07:39.442Z,9.18
2023-04-15T02:10:08.035Z,8.88
2023-04-15T02:12:37.125Z,11.10
2023-04-15T02:15:05.900Z,10.80
2023-04-15T02:17:36.444Z,9.05
2023-04-15T02:20:06.974Z,9.73
2023-04-15T02:22:35.125Z,13.18
2023-04-15T02:25:03.198Z,9.93
2023-04-15T02:27:33.647Z,11.88
2023-04-15T02:30:01.934Z,13.38
2023-04-15T02:32:30.102Z,9.65
2023-04-15T02:34:58.201Z,11.07
2023-04-15T02:37:28.756Z,12.93
2023-04-15T02:39:57.200Z,11.57
2023-04-15T02:42:27.718Z,11.93
2023-04-15T02:44:56.461Z,10.65
2023-04-15T02:47:30.431Z,11.43
2023-04-15T02:50:00.542Z,16.02
2023-04-15T02:52:31.526Z,13.25
2023-04-15T02:55:00.924Z,11.48
2023-04-15T02:57:29.771Z,12.07
2023-04-15T03:00:00.845Z,15.68
2023-04-15T03:02:35.385Z,13.55
2023-04-15T03:05:04.377Z,15.15
2023-04-15T03:07:33.912Z,15.77
2023-04-15T03:10:03.572Z,11.50
2023-04-15T03:12:31.675Z,12.70
2023-04-15T03:15:02.087Z,12.07
2023-04-15T03:17:36.621Z,11.50
2023-04-15T03:20:06.367Z,10.60
2023-04-15T03:22:35.755Z,12.80
2023-04-15T03:25:05.242Z,15.43
2023-04-15T03:27:34.487Z,13.63
2023-04-15T03:30:05.013Z,12.43
2023-04-15T03:32:34.759Z,10.38
2023-04-15T03:35:02.939Z,12.50
2023-04-15T03:37:31.193Z,13.98
2023-04-15T03:40:00.622Z,9.82
2023-04-15T03:42:28.714Z,13.68
2023-04-15T03:44:56.805Z,10.35
2023-04-15T03:47:25.075Z,13.23
2023-04-15T03:49:53.145Z,13.35
2023-04-15T03:52:21.449Z,17.00
2023-04-15T03:54:49.485Z,10.57
2023-04-15T03:57:18.953Z,13.18
2023-04-15T03:59:46.934Z,11.20
2023-04-15T04:02:15.092Z,12.75
2023-04-15T04:04:43.846Z,15.40
2023-04-15T04:07:17.046Z,16.77
2023-04-15T04:09:47.036Z,12.10
2023-04-15T04:12:15.632Z,13.10
2023-04-15T04:14:45.075Z,11.68
2023-04-15T04:17:13.288Z,13.50
2023-04-15T04:19:41.618Z,15.50
2023-04-15T04:22:09.665Z,13.55
2023-04-15T04:24:37.753Z,12.25
2023-04-15T04:27:05.945Z,13.70
2023-04-15T04:29:34.045Z,11.55
2023-04-15T04:32:03.444Z,14.43
2023-04-15T04:34:32.628Z,13.65
2023-04-15T04:37:00.797Z,15.50
2023-04-15T04:39:29.082Z,15.13
2023-04-15T04:41:57.497Z,15.32
2023-04-15T04:44:25.701Z,12.70
2023-04-15T04:46:53.880Z,15.90
2023-04-15T04:49:23.320Z,13.90
2023-04-15T04:51:51.503Z,17.33
2023-04-15T04:54:19.709Z,12.10
2023-04-15T04:56:47.840Z,14.15
2023-04-15T04:59:16.872Z,12.60
2023-04-15T05:01:45.139Z,11.38
2023-04-15T05:04:13.490Z,11.77
2023-04-15T05:06:42.922Z,12.18
2023-04-15T05:09:11.089Z,13.98
2023-04-15T05:11:39.102Z,12.13
2023-04-15T05:14:07.642Z,11.25
2023-04-15T05:16:35.682Z,13.50
2023-04-15T05:19:03.879Z,13.85
2023-04-15T05:21:32.830Z,16.20
2023-04-15T05:24:02.274Z,12.48
2023-04-15T05:26:30.328Z,12.90
2023-04-15T05:28:58.754Z,11.50
2023-04-15T05:31:27.063Z,12.50
2023-04-15T05:33:55.407Z,13.27
2023-04-15T05:36:23.453Z,10.20
2023-04-15T05:38:51.527Z,8.75
2023-04-15T05:41:22.221Z,13.32
2023-04-15T05:43:50.390Z,9.77
2023-04-15T05:46:18.436Z,9.90
2023-04-15T05:48:46.654Z,10.60
2023-04-15T05:51:14.724Z,8.73
2023-04-15T05:53:43.000Z,14.05
2023-04-15T05:56:11.061Z,10.80
2023-04-15T05:58:40.483Z,8.52
2023-04-15T06:01:08.586Z,10.23
2023-04-15T06:03:36.798Z,13.68
2023-04-15T06:06:05.065Z,8.82
2023-04-15T06:08:33.183Z,12.48
2023-04-15T06:11:01.656Z,11.85
2023-04-15T06:13:30.505Z,11.77
2023-04-15T06:15:59.936Z,11.00
2023-04-15T06:18:28.124Z,12.10
2023-04-15T06:20:56.238Z,9.73
2023-04-15T06:23:26.295Z,13.32
2023-04-15T06:25:55.001Z,9.82
2023-04-15T06:28:23.113Z,12.80
2023-04-15T06:30:51.242Z,14.43
2023-04-15T06:33:20.925Z,10.27
2023-04-15T06:35:49.729Z,11.40
2023-04-15T06:38:17.883Z,14.38
2023-04-15T06:40:46.054Z,10.15
2023-04-15T06:43:14.141Z,11.57
2023-04-15T06:45:42.197Z,11.52
2023-04-15T06:48:10.409Z,8.45
2023-04-15T06:50:39.782Z,11.95
2023-04-15T06:53:07.883Z,10.70
2023-04-15T06:55:35.991Z,9.63
2023-04-15T06:58:04.096Z,11.77
2023-04-15T07:00:33.724Z,7.88
2023-04-15T07:03:03.698Z,10.60
2023-04-15T07:05:32.467Z,11.20
2023-04-15T07:08:02.041Z,11.05
2023-04-15T07:10:30.135Z,13.75
2023-04-15T07:12:58.370Z,10.40
2023-04-15T07:15:26.420Z,10.95
2023-04-15T07:17:54.807Z,11.48
2023-04-15T07:20:23.290Z,15.57
2023-04-15T07:22:51.616Z,11.60
2023-04-15T07:25:21.189Z,12.35
2023-04-15T07:27:49.320Z,11.48
2023-04-15T07:30:17.591Z,10.85
2023-04-15T07:32:45.788Z,12.57
2023-04-15T07:35:14.752Z,10.07
2023-04-15T07:37:43.463Z,9.13
2023-04-15T07:40:12.243Z,12.48
2023-04-15T07:42:42.306Z,10.70
2023-04-15T07:45:11.481Z,10.00
2023-04-15T07:47:40.924Z,11.57
2023-04-15T07:50:10.717Z,9.95
2023-04-15T07:52:40.165Z,11.77
2023-04-15T07:55:09.537Z,10.45
2023-04-15T07:57:38.395Z,14.60
2023-04-15T08:00:11.417Z,9.55
2023-04-15T08:02:42.804Z,13.65
2023-04-15T08:05:11.524Z,14.50
2023-04-15T08:07:39.793Z,11.30
2023-04-15T08:10:08.806Z,10.73
2023-04-15T08:12:37.126Z,10.93
2023-04-15T08:15:08.180Z,12.07
2023-04-15T08:17:36.492Z,10.55
2023-04-15T08:20:05.936Z,11.75
2023-04-15T08:22:34.502Z,10.27
2023-04-15T08:25:03.545Z,12.18
2023-04-15T08:27:31.755Z,8.13
2023-04-15T08:30:02.107Z,9.52
2023-04-15T08:32:32.907Z,9.45
2023-04-15T08:35:01.833Z,10.52
2023-04-15T08:37:30.071Z,8.82
2023-04-15T08:39:58.272Z,9.98
2023-04-15T08:42:32.765Z,8.60
2023-04-15T08:45:02.111Z,7.35
2023-04-15T08:47:32.933Z,11.85
2023-04-15T08:50:04.493Z,8.43
2023-04-15T08:52:33.016Z,10.98
2023-04-15T08:55:03.309Z,8.43
2023-04-15T08:57:31.546Z,7.60
2023-04-15T08:59:59.724Z,6.80
2023-04-15T09:02:28.544Z,7.65
2023-04-15T09:04:58.086Z,8.65
2023-04-15T09:07:27.148Z,6.55
2023-04-15T09:09:55.300Z,6.93
2023-04-15T09:12:23.449Z,7.88
2023-04-15T09:14:52.509Z,9.15
2023-04-15T09:17:21.913Z,8.38
2023-04-15T09:19:50.173Z,7.32
2023-04-15T09:22:22.732Z,7.30
2023-04-15T09:24:50.948Z,7.88
2023-04-15T09:27:21.410Z,7.50
2023-04-15T09:29:51.650Z,6.43
2023-04-15T09:32:21.263Z,8.00
2023-04-15T09:34:49.538Z,5.80
2023-04-15T09:37:31.677Z,5.93
2023-04-15T09:40:00.617Z,4.65
2023-04-15T09:42:28.931Z,5.65
2023-04-15T09:44:57.059Z,4.80
2023-04-15T09:47:31.601Z,4.32
2023-04-15T09:50:01.076Z,5.47
2023-04-15T09:52:32.769Z,5.75
2023-04-15T09:55:01.589Z,7.65
2023-04-15T09:57:36.649Z,7.22
2023-04-15T10:00:05.456Z,7.50
2023-04-15T10:02:35.282Z,4.95
2023-04-15T10:05:04.152Z,5.45
2023-04-15T10:07:33.999Z,2.90
2023-04-15T10:10:03.802Z,4.93
2023-04-15T10:12:33.625Z,5.32
2023-04-15T10:15:05.980Z,6.97
2023-04-15T10:17:35.675Z,5.10
2023-04-15T10:20:04.980Z,6.03
2023-04-15T10:22:36.644Z,5.47
2023-04-15T10:25:10.861Z,4.03
2023-04-15T10:27:43.017Z,6.45
2023-04-15T10:30:14.953Z,4.60
2023-04-15T10:32:45.200Z,5.85
2023-04-15T10:35:15.074Z,3.47
2023-04-15T10:37:44.520Z,6.57
2023-04-15T10:40:27.335Z,3.70
2023-04-15T10:42:56.611Z,3.25
2023-04-15T10:45:28.371Z,3.83
2023-04-15T10:47:58.198Z,4.70
2023-04-15T10:50:29.781Z,5.30
2023-04-15T10:53:00.128Z,3.63
2023-04-15T10:55:33.446Z,2.75
2023-04-15T10:58:02.711Z,4.60
2023-04-15T11:00:32.682Z,4.63
2023-04-15T11:03:07.515Z,3.22
2023-04-15T11:05:55.943Z,3.17
2023-04-15T11:09:09.690Z,3.72
2023-04-15T11:12:13.397Z,5.07
2023-04-15T11:14:43.406Z,3.10
2023-04-15T11:17:11.631Z,3.03
2023-04-15T11:19:40.007Z,4.15
2023-04-15T11:22:09.423Z,3.72
2023-04-15T11:24:48.544Z,2.90
2023-04-15T11:27:23.378Z,2.17
2023-04-15T11:29:52.379Z,2.17
2023-04-15T11:32:20.564Z,3.22
2023-04-15T11:34:49.006Z,3.58
2023-04-15T11:37:17.168Z,2.33
2023-04-15T11:39:46.559Z,2.58
2023-04-15T11:42:18.482Z,3.17
2023-04-15T11:44:46.600Z,3.78
2023-04-15T11:47:24.314Z,5.05
2023-04-15T11:49:52.559Z,4.43
2023-04-15T11:52:20.721Z,3.65
2023-04-15T11:54:50.163Z,4.47
2023-04-15T11:57:18.252Z,3.92
2023-04-15T11:59:46.481Z,4.10
2023-04-15T12:02:14.931Z,2.83
2023-04-15T12:04:43.435Z,3.80
2023-04-15T12:07:12.707Z,3.28
2023-04-15T12:09:41.349Z,2.13
2023-04-15T12:12:12.388Z,2.78
2023-04-15T12:14:42.417Z,1.83
2023-04-15T12:17:13.217Z,2.00
2023-04-15T12:19:43.152Z,2.30
2023-04-15T12:22:13.349Z,1.77
2023-04-15T12:24:43.988Z,1.48
2023-04-15T12:27:14.329Z,2.83
2023-04-15T12:29:44.244Z,2.83
2023-04-15T12:32:13.974Z,3.15
2023-04-15T12:34:44.727Z,2.20
2023-04-15T12:37:14.455Z,3.72
2023-04-15T12:39:45.731Z,2.40
2023-04-15T12:42:16.863Z,2.08
2023-04-15T12:44:45.363Z,2.60
2023-04-15T12:47:14.266Z,2.30
2023-04-15T12:49:42.395Z,2.03
2023-04-15T12:52:10.612Z,2.28
2023-04-15T12:54:38.650Z,2.47
2023-04-15T12:57:08.112Z,2.35
2023-04-15T12:59:37.843Z,2.63
2023-04-15T13:02:06.210Z,2.40
2023-04-15T13:04:34.543Z,3.28
2023-04-15T13:07:03.004Z,2.42
2023-04-15T13:09:31.111Z,2.47
2023-04-15T13:11:59.351Z,2.67
2023-04-15T13:14:28.186Z,4.05
2023-04-15T13:16:58.136Z,4.03
2023-04-15T13:19:26.708Z,1.90
2023-04-15T13:21:54.862Z,2.25
2023-04-15T13:24:22.992Z,2.40
2023-04-15T13:26:51.072Z,2.55
2023-04-15T13:29:19.141Z,3.42
2023-04-15T13:31:47.329Z,2.30
2023-04-15T13:34:16.910Z,1.98
2023-04-15T13:36:44.974Z,2.30
2023-04-15T13:39:13.060Z,2.55
2023-04-15T13:41:41.852Z,2.28
2023-04-15T13:44:10.033Z,2.65
2023-04-15T13:46:39.631Z,2.40
2023-04-15T13:49:07.719Z,2.10
2023-04-15T13:51:37.324Z,2.45
2023-04-15T13:54:05.857Z,2.15
2023-04-15T13:56:34.243Z,3.30
2023-04-15T13:59:03.401Z,1.75
2023-04-15T14:01:31.688Z,2.20
2023-04-15T14:03:59.917Z,2.17
2023-04-15T14:06:28.570Z,2.25
2023-04-15T14:08:58.074Z,1.85
2023-04-15T14:11:26.352Z,2.50
2023-04-15T14:13:54.415Z,2.70
2023-04-15T14:16:22.725Z,2.00
2023-04-15T14:18:50.822Z,2.33
2023-04-15T14:21:19.060Z,2.17
2023-04-15T14:23:47.224Z,1.90
2023-04-15T14:26:16.703Z,1.92
2023-04-15T14:28:45.193Z,1.80
2023-04-15T14:31:14.351Z,1.88
2023-04-15T14:33:42.568Z,2.13
2023-04-15T14:36:11.258Z,2.13
2023-04-15T14:38:40.156Z,1.55
2023-04-15T14:41:09.514Z,1.63
2023-04-15T14:43:40.897Z,2.13
2023-04-15T14:46:09.609Z,1.40
2023-04-15T14:48:38.099Z,2.13
2023-04-15T14:51:06.535Z,2.05
2023-04-15T14:53:34.773Z,3.35
2023-04-15T14:56:03.099Z,1.58
2023-04-15T14:58:32.841Z,1.85
2023-04-15T15:01:03.053Z,2.92
2023-04-15T15:03:32.082Z,2.83
2023-04-15T15:06:00.338Z,2.83
2023-04-15T15:08:28.523Z,2.17
2023-04-15T15:10:56.631Z,2.40
2023-04-15T15:13:25.432Z,1.60
2023-04-15T15:15:53.687Z,1.98
2023-04-15T15:18:25.561Z,1.65
2023-04-15T15:20:53.781Z,1.77
2023-04-15T15:23:22.034Z,1.58
2023-04-15T15:25:50.283Z,1.70
2023-04-15T15:28:18.544Z,2.45
2023-04-15T15:30:46.619Z,1.85
2023-04-15T15:33:14.752Z,1.77
2023-04-15T15:35:44.274Z,1.42
2023-04-15T15:38:13.152Z,1.35
2023-04-15T15:40:41.405Z,1.13
2023-04-15T15:43:09.567Z,2.03
2023-04-15T15:45:37.770Z,1.70
2023-04-15T15:48:06.867Z,1.70
2023-04-15T15:50:35.542Z,1.55
2023-04-15T15:53:04.949Z,1.65
2023-04-15T15:55:33.170Z,3.17
2023-04-15T15:58:01.302Z,2.35
2023-04-15T16:00:29.499Z,1.75
2023-04-15T16:05:29.546Z,2.47
2023-04-15T16:07:57.728Z,1.55
2023-04-15T16:10:27.318Z,2.70
2023-04-15T16:12:56.192Z,2.20
2023-04-15T16:15:24.540Z,1.73
2023-04-15T16:17:52.675Z,1.52
2023-04-15T16:20:20.972Z,4.43
2023-04-15T16:22:49.151Z,1.92
2023-04-15T16:25:17.260Z,1.73
2023-04-15T16:27:59.474Z,1.65
2023-04-15T16:30:31.733Z,1.90
2023-04-15T16:32:59.977Z,1.90
2023-04-15T16:35:28.427Z,1.92
2023-04-15T16:37:56.649Z,1.50
2023-04-15T16:40:25.092Z,3.47
2023-04-15T16:42:54.599Z,2.17
2023-04-15T16:45:22.672Z,1.85
2023-04-15T16:47:50.803Z,1.70
2023-04-15T16:50:19.074Z,1.52
2023-04-15T16:52:47.197Z,1.80
2023-04-15T16:55:15.687Z,1.73
2023-04-15T16:58:00.524Z,1.83
2023-04-15T17:00:32.978Z,2.63
2023-04-15T17:03:02.104Z,2.28
2023-04-15T17:05:30.745Z,2.60
2023-04-15T17:07:59.371Z,2.25
2023-04-15T17:10:27.827Z,2.17
2023-04-15T17:12:57.707Z,3.03
2023-04-15T17:15:26.188Z,2.70
2023-04-15T17:17:56.112Z,1.80
2023-04-15T17:20:24.416Z,3.75
2023-04-15T17:22:52.633Z,2.38
2023-04-15T17:25:20.893Z,4.05
2023-04-15T17:27:49.110Z,11.13
2023-04-15T17:30:17.246Z,2.28
2023-04-15T17:32:45.692Z,2.80
2023-04-15T17:35:15.179Z,2.28
2023-04-15T17:37:43.382Z,2.25
2023-04-15T17:40:12.418Z,2.55
2023-04-15T17:42:40.740Z,2.40
2023-04-15T17:45:09.585Z,2.92
2023-04-15T17:47:37.853Z,1.40
2023-04-15T17:50:06.561Z,1.77
2023-04-15T17:52:36.094Z,2.83
2023-04-15T17:55:04.538Z,2.05
2023-04-15T17:57:32.684Z,1.75
2023-04-15T18:00:00.802Z,1.75
2023-04-15T18:02:29.279Z,1.77
2023-04-15T18:04:58.435Z,2.80
2023-04-15T18:07:26.738Z,1.98
2023-04-15T18:09:56.508Z,1.40
2023-04-15T18:12:24.702Z,1.63
2023-04-15T18:14:52.855Z,1.48
2023-04-15T18:17:21.404Z,1.45
2023-04-15T18:19:49.520Z,2.25
2023-04-15T18:22:17.651Z,1.55
2023-04-15T18:24:45.677Z,1.48
2023-04-15T18:27:15.227Z,1.45
2023-04-15T18:29:44.010Z,1.50
2023-04-15T18:32:12.199Z,1.33
2023-04-15T18:34:40.350Z,1.50
2023-04-15T18:37:08.584Z,1.67
2023-04-15T18:39:36.798Z,1.35
2023-04-15T18:42:05.011Z,1.52
2023-04-15T18:44:34.531Z,1.58
2023-04-15T18:47:02.813Z,1.50
2023-04-15T18:49:33.293Z,3.58
2023-04-15T18:52:01.709Z,2.97
2023-04-15T18:54:29.788Z,1.52
2023-04-15T18:56:58.462Z,1.77
2023-04-15T18:59:30.525Z,1.50
2023-04-15T19:02:01.265Z,1.30
2023-04-15T19:04:29.806Z,1.33
2023-04-15T19:06:59.002Z,1.60
2023-04-15T19:09:27.465Z,2.05
2023-04-15T19:11:56.956Z,1.30
2023-04-15T19:14:25.451Z,2.35
2023-04-15T19:16:53.793Z,3.72
2023-04-15T19:19:23.253Z,1.55
2023-04-15T19:21:51.568Z,1.52
2023-04-15T19:24:19.985Z,3.60
2023-04-15T19:26:51.118Z,1.60
2023-04-15T19:29:19.446Z,2.63
2023-04-15T19:31:47.559Z,2.08
2023-04-15T19:34:15.884Z,1.55
2023-04-15T19:36:45.518Z,2.58
2023-04-15T19:39:14.654Z,1.58
2023-04-15T19:41:44.302Z,1.30
2023-04-15T19:44:13.723Z,2.38
2023-04-15T19:46:44.097Z,1.23
2023-04-15T19:49:12.359Z,1.42
2023-04-15T19:51:40.431Z,1.00
2023-04-15T19:54:09.966Z,0.98
2023-04-15T19:56:38.278Z,1.40
2023-04-15T19:59:06.636Z,1.10
2023-04-15T20:01:34.987Z,1.23
2023-04-15T20:04:04.044Z,1.02
2023-04-15T20:06:32.682Z,1.30
2023-04-15T20:09:00.749Z,1.25
2023-04-15T20:12:48.326Z,0.65
2023-04-15T20:14:18.684Z,2.38
2023-04-15T20:16:47.795Z,2.05
2023-04-15T20:19:16.180Z,2.83
2023-04-15T20:21:44.203Z,2.10
2023-04-15T20:24:12.399Z,2.70
2023-04-15T20:26:41.882Z,2.15
2023-04-15T20:29:09.948Z,2.45
2023-04-15T20:31:38.079Z,1.67
2023-04-15T20:34:06.420Z,1.60
2023-04-15T20:36:34.538Z,2.00
2023-04-15T20:39:02.841Z,1.52
2023-04-15T20:41:31.009Z,1.50
2023-04-15T20:44:00.537Z,1.55
2023-04-15T20:46:28.812Z,2.45
2023-04-15T20:48:56.977Z,1.45
2023-04-15T20:51:25.170Z,1.48
2023-04-15T20:53:53.270Z,1.35
2023-04-15T20:56:21.421Z,1.30
2023-04-15T20:58:49.533Z,1.50
2023-04-15T21:01:19.056Z,1.10
2023-04-15T21:03:47.178Z,2.15
2023-04-15T21:06:15.563Z,1.00
2023-04-15T21:08:43.693Z,1.58
2023-04-15T21:11:11.834Z,1.33
2023-04-15T21:13:39.923Z,1.98
2023-04-15T21:16:08.064Z,4.28
2023-04-15T21:18:37.463Z,6.25
2023-04-15T21:21:06.100Z,3.72
2023-04-15T21:23:35.912Z,3.80
2023-04-15T21:26:04.283Z,3.35
2023-04-15T21:28:32.878Z,2.83
2023-04-15T21:31:01.285Z,3.05
2023-04-15T21:33:29.374Z,3.38
2023-04-15T21:35:58.794Z,2.22
2023-04-15T21:38:26.899Z,1.50
2023-04-15T21:40:55.245Z,1.40
2023-04-15T21:43:25.673Z,1.58
2023-04-15T21:46:23.469Z,1.50
2023-04-15T21:48:42.634Z,1.20
2023-04-15T21:51:12.359Z,2.72
2023-04-15T21:53:40.742Z,1.08
2023-04-15T21:56:09.529Z,1.67
2023-04-15T21:58:37.922Z,1.02
2023-04-15T22:01:06.438Z,1.08
2023-04-15T22:03:35.949Z,1.08
2023-04-15T22:06:04.814Z,0.82
2023-04-15T22:08:44.602Z,1.00
2023-04-15T22:11:26.234Z,0.93
2023-04-15T22:13:54.737Z,1.63
2023-04-15T22:16:22.977Z,1.15
2023-04-15T22:18:51.354Z,2.47
2023-04-15T22:21:19.841Z,1.90
2023-04-15T22:23:50.482Z,1.80
2023-04-15T22:26:18.703Z,1.95
2023-04-15T22:28:46.943Z,1.55
2023-04-15T22:31:15.351Z,1.45
2023-04-15T22:33:43.573Z,2.45
2023-04-15T22:36:11.755Z,1.48
2023-04-15T22:38:39.778Z,0.95
2023-04-15T22:41:09.208Z,1.13
2023-04-15T22:43:37.386Z,1.45
2023-04-15T22:46:05.606Z,1.73
2023-04-15T22:48:33.649Z,0.95
2023-04-15T22:51:01.851Z,1.63
2023-04-15T22:53:30.012Z,1.70
2023-04-15T22:55:58.149Z,2.00
2023-04-15T22:58:27.538Z,1.70
2023-04-15T23:00:55.771Z,1.75
2023-04-15T23:03:23.964Z,1.40
2023-04-15T23:05:52.148Z,1.35
2023-04-15T23:08:20.230Z,8.27
2023-04-15T23:10:49.327Z,1.55
2023-04-15T23:13:17.479Z,1.77
2023-04-15T23:15:46.948Z,2.58
2023-04-15T23:18:15.040Z,2.28
2023-04-15T23:20:43.173Z,1.35
2023-04-15T23:23:11.288Z,1.52
2023-04-15T23:25:39.377Z,0.90
2023-04-15T23:28:07.591Z,1.23
2023-04-15T23:30:35.758Z,1.65
2023-04-15T23:33:05.545Z,1.67
2023-04-15T23:35:33.819Z,2.00
2023-04-15T23:38:01.925Z,2.00
2023-04-15T23:40:30.107Z,1.42
2023-04-15T23:42:58.366Z,1.42
2023-04-15T23:45:26.495Z,2.80
2023-04-15T23:47:54.541Z,1.60
2023-04-15T23:50:24.099Z,1.50
2023-04-15T23:52:52.249Z,2.05
2023-04-15T23:55:20.428Z,1.35
2023-04-15T23:57:48.458Z,1.50
